sensor_id;sensor_type;location;lat;lon;timestamp;P1;durP1;ratioP1;P2;durP2;ratioP2
12871;SDS011;6504;53.766;9.626;2023-07-31T00:01:00;4.33;;;1.90;;
12871;SDS011;6504;53.766;9.626;2023-07-31T00:03:28;5.47;;;2.00;;
12871;SDS011;6504;53.766;9.626;2023-07-31T00:05:56;5.47;;;2.37;;
12871;SDS011;6504;53.766;9.626;2023-07-31T00:08:24;8.53;;;2.30;;
12871;SDS011;6504;53.766;9.626;2023-07-31T00:10:52;5.63;;;2.33;;
12871;SDS011;6504;53.766;9.626;2023-07-31T00:13:20;3.93;;;2.10;;
12871;SDS011;6504;53.766;9.626;2023-07-31T00:15:49;7.37;;;2.40;;
12871;SDS011;6504;53.766;9.626;2023-07-31T00:18:18;3.67;;;2.20;;
12871;SDS011;6504;53.766;9.626;2023-07-31T00:20:46;4.47;;;2.60;;
12871;SDS011;6504;53.766;9.626;2023-07-31T00:23:15;4.60;;;2.40;;
12871;SDS011;6504;53.766;9.626;2023-07-31T00:25:43;5.70;;;2.40;;
12871;SDS011;6504;53.766;9.626;2023-07-31T00:28:11;4.70;;;2.33;;
12871;SDS011;6504;53.766;9.626;2023-07-31T00:30:39;6.90;;;2.50;;
12871;SDS011;6504;53.766;9.626;2023-07-31T00:33:07;5.17;;;2.23;;
12871;SDS011;6504;53.766;9.626;2023-07-31T00:35:36;4.53;;;2.47;;
12871;SDS011;6504;53.766;9.626;2023-07-31T00:38:04;5.13;;;2.80;;
12871;SDS011;6504;53.766;9.626;2023-07-31T00:40:34;5.77;;;2.80;;
12871;SDS011;6504;53.766;9.626;2023-07-31T00:43:03;6.63;;;2.63;;
12871;SDS011;6504;53.766;9.626;2023-07-31T00:45:32;6.33;;;2.90;;
12871;SDS011;6504;53.766;9.626;2023-07-31T00:48:00;5.70;;;2.70;;
12871;SDS011;6504;53.766;9.626;2023-07-31T00:50:29;6.97;;;2.97;;
12871;SDS011;6504;53.766;9.626;2023-07-31T00:52:59;7.63;;;3.23;;
12871;SDS011;6504;53.766;9.626;2023-07-31T00:55:27;4.83;;;2.67;;
12871;SDS011;6504;53.766;9.626;2023-07-31T00:57:55;5.57;;;2.87;;
12871;SDS011;6504;53.766;9.626;2023-07-31T01:00:24;6.17;;;2.83;;
12871;SDS011;6504;53.766;9.626;2023-07-31T01:02:52;7.50;;;3.27;;
12871;SDS011;6504;53.766;9.626;2023-07-31T01:05:22;7.67;;;3.00;;
12871;SDS011;6504;53.766;9.626;2023-07-31T01:08:04;6.23;;;3.03;;
12871;SDS011;6504;53.766;9.626;2023-07-31T01:10:38;7.43;;;3.13;;
12871;SDS011;6504;53.766;9.626;2023-07-31T01:13:14;6.93;;;2.93;;
12871;SDS011;6504;53.766;9.626;2023-07-31T01:15:42;6.07;;;2.87;;
12871;SDS011;6504;53.766;9.626;2023-07-31T01:18:10;4.50;;;2.87;;
12871;SDS011;6504;53.766;9.626;2023-07-31T01:20:38;3.87;;;2.50;;
12871;SDS011;6504;53.766;9.626;2023-07-31T01:26:12;5.00;;;2.67;;
12871;SDS011;6504;53.766;9.626;2023-07-31T01:28:46;5.80;;;2.73;;
12871;SDS011;6504;53.766;9.626;2023-07-31T01:31:22;7.27;;;2.80;;
12871;SDS011;6504;53.766;9.626;2023-07-31T01:33:53;6.37;;;2.90;;
12871;SDS011;6504;53.766;9.626;2023-07-31T01:36:23;7.20;;;2.97;;
12871;SDS011;6504;53.766;9.626;2023-07-31T01:38:52;7.27;;;2.77;;
12871;SDS011;6504;53.766;9.626;2023-07-31T01:41:26;4.57;;;2.63;;
12871;SDS011;6504;53.766;9.626;2023-07-31T01:43:54;6.07;;;2.73;;
12871;SDS011;6504;53.766;9.626;2023-07-31T01:46:22;7.30;;;3.00;;
12871;SDS011;6504;53.766;9.626;2023-07-31T01:48:50;5.57;;;2.90;;
12871;SDS011;6504;53.766;9.626;2023-07-31T01:51:18;6.83;;;3.17;;
12871;SDS011;6504;53.766;9.626;2023-07-31T01:53:46;4.53;;;2.60;;
12871;SDS011;6504;53.766;9.626;2023-07-31T01:56:14;5.67;;;2.73;;
12871;SDS011;6504;53.766;9.626;2023-07-31T01:58:44;5.87;;;2.87;;
12871;SDS011;6504;53.766;9.626;2023-07-31T02:01:12;6.03;;;2.60;;
12871;SDS011;6504;53.766;9.626;2023-07-31T02:03:40;4.13;;;2.50;;
12871;SDS011;6504;53.766;9.626;2023-07-31T02:06:08;6.03;;;3.10;;
12871;SDS011;6504;53.766;9.626;2023-07-31T02:08:37;5.60;;;2.83;;
12871;SDS011;6504;53.766;9.626;2023-07-31T02:11:05;5.00;;;3.20;;
12871;SDS011;6504;53.766;9.626;2023-07-31T02:13:33;7.07;;;3.10;;
12871;SDS011;6504;53.766;9.626;2023-07-31T02:16:03;6.33;;;3.60;;
12871;SDS011;6504;53.766;9.626;2023-07-31T02:18:31;5.40;;;3.13;;
12871;SDS011;6504;53.766;9.626;2023-07-31T02:20:59;5.27;;;3.27;;
12871;SDS011;6504;53.766;9.626;2023-07-31T02:23:27;8.03;;;3.60;;
12871;SDS011;6504;53.766;9.626;2023-07-31T02:25:55;6.40;;;3.37;;
12871;SDS011;6504;53.766;9.626;2023-07-31T02:28:23;6.57;;;3.47;;
12871;SDS011;6504;53.766;9.626;2023-07-31T02:30:51;5.27;;;3.40;;
12871;SDS011;6504;53.766;9.626;2023-07-31T02:33:21;6.37;;;3.00;;
12871;SDS011;6504;53.766;9.626;2023-07-31T02:35:49;7.60;;;3.53;;
12871;SDS011;6504;53.766;9.626;2023-07-31T02:38:17;5.77;;;3.13;;
12871;SDS011;6504;53.766;9.626;2023-07-31T02:40:45;8.47;;;3.87;;
12871;SDS011;6504;53.766;9.626;2023-07-31T02:43:14;7.83;;;3.50;;
12871;SDS011;6504;53.766;9.626;2023-07-31T02:45:42;4.97;;;3.60;;
12871;SDS011;6504;53.766;9.626;2023-07-31T02:48:10;4.80;;;3.43;;
12871;SDS011;6504;53.766;9.626;2023-07-31T02:50:39;5.83;;;3.40;;
12871;SDS011;6504;53.766;9.626;2023-07-31T02:53:07;4.87;;;3.17;;
12871;SDS011;6504;53.766;9.626;2023-07-31T02:55:36;7.07;;;3.80;;
12871;SDS011;6504;53.766;9.626;2023-07-31T02:58:05;6.30;;;3.60;;
12871;SDS011;6504;53.766;9.626;2023-07-31T03:00:33;6.83;;;3.80;;
12871;SDS011;6504;53.766;9.626;2023-07-31T03:03:01;7.37;;;3.50;;
12871;SDS011;6504;53.766;9.626;2023-07-31T03:05:29;6.50;;;3.37;;
12871;SDS011;6504;53.766;9.626;2023-07-31T03:07:59;5.83;;;3.67;;
12871;SDS011;6504;53.766;9.626;2023-07-31T03:10:27;5.37;;;3.20;;
12871;SDS011;6504;53.766;9.626;2023-07-31T03:12:55;5.90;;;3.40;;
12871;SDS011;6504;53.766;9.626;2023-07-31T03:15:23;4.90;;;3.20;;
12871;SDS011;6504;53.766;9.626;2023-07-31T03:17:51;6.37;;;3.70;;
12871;SDS011;6504;53.766;9.626;2023-07-31T03:20:19;4.73;;;3.23;;
12871;SDS011;6504;53.766;9.626;2023-07-31T03:22:47;5.60;;;3.60;;
12871;SDS011;6504;53.766;9.626;2023-07-31T03:25:16;6.53;;;3.40;;
12871;SDS011;6504;53.766;9.626;2023-07-31T03:27:44;4.53;;;3.53;;
12871;SDS011;6504;53.766;9.626;2023-07-31T03:30:12;5.83;;;3.60;;
12871;SDS011;6504;53.766;9.626;2023-07-31T03:32:40;5.33;;;3.50;;
12871;SDS011;6504;53.766;9.626;2023-07-31T03:35:08;5.47;;;3.20;;
12871;SDS011;6504;53.766;9.626;2023-07-31T03:37:38;5.63;;;3.30;;
12871;SDS011;6504;53.766;9.626;2023-07-31T03:40:06;3.63;;;3.10;;
12871;SDS011;6504;53.766;9.626;2023-07-31T03:42:36;5.07;;;3.40;;
12871;SDS011;6504;53.766;9.626;2023-07-31T03:45:05;5.77;;;3.50;;
12871;SDS011;6504;53.766;9.626;2023-07-31T03:47:34;4.53;;;3.30;;
12871;SDS011;6504;53.766;9.626;2023-07-31T03:50:02;4.37;;;3.33;;
12871;SDS011;6504;53.766;9.626;2023-07-31T03:52:30;5.93;;;3.83;;
12871;SDS011;6504;53.766;9.626;2023-07-31T03:54:58;5.70;;;3.30;;
12871;SDS011;6504;53.766;9.626;2023-07-31T03:57:26;5.40;;;3.53;;
12871;SDS011;6504;53.766;9.626;2023-07-31T03:59:56;3.83;;;3.40;;
12871;SDS011;6504;53.766;9.626;2023-07-31T04:02:24;4.57;;;3.33;;
12871;SDS011;6504;53.766;9.626;2023-07-31T04:04:52;4.60;;;3.30;;
12871;SDS011;6504;53.766;9.626;2023-07-31T04:07:20;6.37;;;3.30;;
12871;SDS011;6504;53.766;9.626;2023-07-31T04:09:48;5.93;;;3.43;;
12871;SDS011;6504;53.766;9.626;2023-07-31T04:12:16;6.00;;;3.60;;
12871;SDS011;6504;53.766;9.626;2023-07-31T04:14:44;5.33;;;3.40;;
12871;SDS011;6504;53.766;9.626;2023-07-31T04:17:14;3.90;;;3.60;;
12871;SDS011;6504;53.766;9.626;2023-07-31T04:19:42;5.27;;;3.50;;
12871;SDS011;6504;53.766;9.626;2023-07-31T04:22:10;3.90;;;3.27;;
12871;SDS011;6504;53.766;9.626;2023-07-31T04:24:38;4.00;;;3.67;;
12871;SDS011;6504;53.766;9.626;2023-07-31T04:27:06;4.33;;;3.63;;
12871;SDS011;6504;53.766;9.626;2023-07-31T04:29:35;4.43;;;3.83;;
12871;SDS011;6504;53.766;9.626;2023-07-31T04:32:03;4.20;;;3.80;;
12871;SDS011;6504;53.766;9.626;2023-07-31T04:34:33;6.07;;;4.17;;
12871;SDS011;6504;53.766;9.626;2023-07-31T04:37:01;6.00;;;3.87;;
12871;SDS011;6504;53.766;9.626;2023-07-31T04:39:29;5.23;;;3.60;;
12871;SDS011;6504;53.766;9.626;2023-07-31T04:41:57;4.17;;;3.77;;
12871;SDS011;6504;53.766;9.626;2023-07-31T04:44:25;5.17;;;4.00;;
12871;SDS011;6504;53.766;9.626;2023-07-31T04:46:53;4.40;;;4.00;;
12871;SDS011;6504;53.766;9.626;2023-07-31T04:49:21;3.90;;;3.40;;
12871;SDS011;6504;53.766;9.626;2023-07-31T04:51:51;4.63;;;3.60;;
12871;SDS011;6504;53.766;9.626;2023-07-31T04:54:19;4.00;;;3.60;;
12871;SDS011;6504;53.766;9.626;2023-07-31T04:56:47;4.03;;;3.63;;
12871;SDS011;6504;53.766;9.626;2023-07-31T04:59:15;3.60;;;3.37;;
12871;SDS011;6504;53.766;9.626;2023-07-31T05:01:43;4.17;;;3.53;;
12871;SDS011;6504;53.766;9.626;2023-07-31T05:04:12;3.43;;;3.23;;
12871;SDS011;6504;53.766;9.626;2023-07-31T05:06:40;3.63;;;3.40;;
12871;SDS011;6504;53.766;9.626;2023-07-31T05:09:10;3.90;;;3.10;;
12871;SDS011;6504;53.766;9.626;2023-07-31T05:11:38;3.60;;;3.40;;
12871;SDS011;6504;53.766;9.626;2023-07-31T05:14:09;3.40;;;3.10;;
12871;SDS011;6504;53.766;9.626;2023-07-31T05:16:37;3.40;;;3.10;;
12871;SDS011;6504;53.766;9.626;2023-07-31T05:19:05;3.50;;;3.20;;
12871;SDS011;6504;53.766;9.626;2023-07-31T05:21:34;3.60;;;3.37;;
12871;SDS011;6504;53.766;9.626;2023-07-31T05:24:02;3.23;;;3.03;;
12871;SDS011;6504;53.766;9.626;2023-07-31T05:26:32;3.80;;;3.20;;
12871;SDS011;6504;53.766;9.626;2023-07-31T05:29:00;4.87;;;3.30;;
12871;SDS011;6504;53.766;9.626;2023-07-31T05:31:28;3.03;;;2.80;;
12871;SDS011;6504;53.766;9.626;2023-07-31T05:33:58;3.00;;;2.70;;
12871;SDS011;6504;53.766;9.626;2023-07-31T05:36:26;3.00;;;2.70;;
12871;SDS011;6504;53.766;9.626;2023-07-31T05:38:54;2.80;;;2.53;;
12871;SDS011;6504;53.766;9.626;2023-07-31T05:41:22;2.97;;;2.67;;
12871;SDS011;6504;53.766;9.626;2023-07-31T05:43:52;3.20;;;3.00;;
12871;SDS011;6504;53.766;9.626;2023-07-31T05:46:20;3.43;;;3.13;;
12871;SDS011;6504;53.766;9.626;2023-07-31T05:48:48;3.50;;;3.23;;
12871;SDS011;6504;53.766;9.626;2023-07-31T05:51:16;3.80;;;3.60;;
12871;SDS011;6504;53.766;9.626;2023-07-31T05:53:44;3.90;;;3.60;;
12871;SDS011;6504;53.766;9.626;2023-07-31T05:56:12;4.00;;;3.70;;
12871;SDS011;6504;53.766;9.626;2023-07-31T05:58:41;3.80;;;3.60;;
12871;SDS011;6504;53.766;9.626;2023-07-31T06:01:10;3.77;;;3.40;;
12871;SDS011;6504;53.766;9.626;2023-07-31T06:03:38;3.77;;;3.47;;
12871;SDS011;6504;53.766;9.626;2023-07-31T06:06:06;4.07;;;3.77;;
12871;SDS011;6504;53.766;9.626;2023-07-31T06:08:34;4.10;;;3.80;;
12871;SDS011;6504;53.766;9.626;2023-07-31T06:11:03;4.23;;;3.93;;
12871;SDS011;6504;53.766;9.626;2023-07-31T06:13:32;3.80;;;3.50;;
12871;SDS011;6504;53.766;9.626;2023-07-31T06:16:00;4.00;;;3.70;;
12871;SDS011;6504;53.766;9.626;2023-07-31T06:18:33;3.93;;;3.63;;
12871;SDS011;6504;53.766;9.626;2023-07-31T06:21:01;3.87;;;3.57;;
12871;SDS011;6504;53.766;9.626;2023-07-31T06:23:29;4.83;;;3.60;;
12871;SDS011;6504;53.766;9.626;2023-07-31T06:25:57;3.60;;;3.37;;
12871;SDS011;6504;53.766;9.626;2023-07-31T06:28:27;4.17;;;3.87;;
12871;SDS011;6504;53.766;9.626;2023-07-31T06:30:56;4.30;;;4.00;;
12871;SDS011;6504;53.766;9.626;2023-07-31T06:33:24;3.70;;;3.50;;
12871;SDS011;6504;53.766;9.626;2023-07-31T06:35:54;4.27;;;3.97;;
12871;SDS011;6504;53.766;9.626;2023-07-31T06:38:23;3.97;;;3.77;;
12871;SDS011;6504;53.766;9.626;2023-07-31T06:40:53;4.77;;;4.37;;
12871;SDS011;6504;53.766;9.626;2023-07-31T06:43:21;11.23;;;4.47;;
12871;SDS011;6504;53.766;9.626;2023-07-31T06:45:52;4.27;;;3.87;;
12871;SDS011;6504;53.766;9.626;2023-07-31T06:48:20;4.27;;;3.90;;
12871;SDS011;6504;53.766;9.626;2023-07-31T06:50:49;4.13;;;3.83;;
12871;SDS011;6504;53.766;9.626;2023-07-31T06:53:20;4.00;;;3.80;;
12871;SDS011;6504;53.766;9.626;2023-07-31T06:55:48;3.90;;;3.60;;
12871;SDS011;6504;53.766;9.626;2023-07-31T06:58:18;3.97;;;3.73;;
12871;SDS011;6504;53.766;9.626;2023-07-31T07:00:47;3.80;;;3.50;;
12871;SDS011;6504;53.766;9.626;2023-07-31T07:03:16;3.80;;;3.60;;
12871;SDS011;6504;53.766;9.626;2023-07-31T07:05:45;4.20;;;3.90;;
12871;SDS011;6504;53.766;9.626;2023-07-31T07:08:14;4.13;;;3.77;;
12871;SDS011;6504;53.766;9.626;2023-07-31T07:10:44;4.50;;;4.10;;
12871;SDS011;6504;53.766;9.626;2023-07-31T07:13:12;4.47;;;4.07;;
12871;SDS011;6504;53.766;9.626;2023-07-31T07:15:40;4.00;;;3.70;;
12871;SDS011;6504;53.766;9.626;2023-07-31T07:18:08;4.53;;;4.13;;
12871;SDS011;6504;53.766;9.626;2023-07-31T07:20:37;5.10;;;4.80;;
12871;SDS011;6504;53.766;9.626;2023-07-31T07:23:05;4.50;;;4.20;;
12871;SDS011;6504;53.766;9.626;2023-07-31T07:25:37;4.60;;;4.30;;
12871;SDS011;6504;53.766;9.626;2023-07-31T07:28:06;4.03;;;3.73;;
12871;SDS011;6504;53.766;9.626;2023-07-31T07:30:34;4.70;;;4.40;;
12871;SDS011;6504;53.766;9.626;2023-07-31T07:33:03;4.87;;;4.47;;
12871;SDS011;6504;53.766;9.626;2023-07-31T07:35:32;4.83;;;4.53;;
12871;SDS011;6504;53.766;9.626;2023-07-31T07:38:01;4.90;;;4.40;;
12871;SDS011;6504;53.766;9.626;2023-07-31T07:40:29;4.20;;;3.87;;
12871;SDS011;6504;53.766;9.626;2023-07-31T07:42:57;4.77;;;4.47;;
12871;SDS011;6504;53.766;9.626;2023-07-31T07:45:27;4.27;;;3.97;;
12871;SDS011;6504;53.766;9.626;2023-07-31T07:47:55;4.17;;;3.87;;
12871;SDS011;6504;53.766;9.626;2023-07-31T07:50:24;4.57;;;4.27;;
12871;SDS011;6504;53.766;9.626;2023-07-31T07:52:52;4.27;;;3.97;;
12871;SDS011;6504;53.766;9.626;2023-07-31T07:55:20;4.83;;;4.53;;
12871;SDS011;6504;53.766;9.626;2023-07-31T07:57:48;4.50;;;4.20;;
12871;SDS011;6504;53.766;9.626;2023-07-31T08:00:17;4.40;;;4.10;;
12871;SDS011;6504;53.766;9.626;2023-07-31T08:02:46;4.40;;;4.10;;
12871;SDS011;6504;53.766;9.626;2023-07-31T08:05:15;4.43;;;4.13;;
12871;SDS011;6504;53.766;9.626;2023-07-31T08:07:43;3.80;;;3.60;;
12871;SDS011;6504;53.766;9.626;2023-07-31T08:10:12;4.27;;;4.03;;
12871;SDS011;6504;53.766;9.626;2023-07-31T08:12:40;4.50;;;4.20;;
12871;SDS011;6504;53.766;9.626;2023-07-31T08:15:08;4.50;;;4.20;;
12871;SDS011;6504;53.766;9.626;2023-07-31T08:17:36;4.93;;;4.63;;
12871;SDS011;6504;53.766;9.626;2023-07-31T08:20:06;4.47;;;4.17;;
12871;SDS011;6504;53.766;9.626;2023-07-31T08:22:35;4.00;;;3.80;;
12871;SDS011;6504;53.766;9.626;2023-07-31T08:25:04;4.47;;;4.17;;
12871;SDS011;6504;53.766;9.626;2023-07-31T08:27:33;4.60;;;4.30;;
12871;SDS011;6504;53.766;9.626;2023-07-31T08:30:01;4.93;;;4.53;;
12871;SDS011;6504;53.766;9.626;2023-07-31T08:32:29;4.53;;;4.23;;
12871;SDS011;6504;53.766;9.626;2023-07-31T08:34:57;4.90;;;4.50;;
12871;SDS011;6504;53.766;9.626;2023-07-31T08:37:26;4.40;;;4.10;;
12871;SDS011;6504;53.766;9.626;2023-07-31T08:39:54;4.90;;;4.53;;
12871;SDS011;6504;53.766;9.626;2023-07-31T08:42:22;4.20;;;3.90;;
12871;SDS011;6504;53.766;9.626;2023-07-31T08:44:51;4.30;;;4.00;;
12871;SDS011;6504;53.766;9.626;2023-07-31T08:47:20;4.10;;;3.80;;
12871;SDS011;6504;53.766;9.626;2023-07-31T08:49:50;3.97;;;3.67;;
12871;SDS011;6504;53.766;9.626;2023-07-31T08:52:20;3.80;;;3.50;;
12871;SDS011;6504;53.766;9.626;2023-07-31T08:54:49;3.27;;;3.07;;
12871;SDS011;6504;53.766;9.626;2023-07-31T08:57:18;3.57;;;3.37;;
12871;SDS011;6504;53.766;9.626;2023-07-31T08:59:46;4.33;;;2.97;;
12871;SDS011;6504;53.766;9.626;2023-07-31T09:02:14;3.70;;;3.20;;
12871;SDS011;6504;53.766;9.626;2023-07-31T09:04:44;3.10;;;2.90;;
12871;SDS011;6504;53.766;9.626;2023-07-31T09:07:12;2.97;;;2.77;;
12871;SDS011;6504;53.766;9.626;2023-07-31T09:09:42;3.17;;;2.70;;
12871;SDS011;6504;53.766;9.626;2023-07-31T09:12:13;2.83;;;2.63;;
12871;SDS011;6504;53.766;9.626;2023-07-31T09:14:41;2.47;;;2.33;;
12871;SDS011;6504;53.766;9.626;2023-07-31T09:17:11;2.77;;;2.60;;
12871;SDS011;6504;53.766;9.626;2023-07-31T09:19:39;2.80;;;2.60;;
12871;SDS011;6504;53.766;9.626;2023-07-31T09:22:07;3.00;;;2.80;;
12871;SDS011;6504;53.766;9.626;2023-07-31T09:24:35;3.00;;;2.80;;
12871;SDS011;6504;53.766;9.626;2023-07-31T09:27:05;2.93;;;2.73;;
12871;SDS011;6504;53.766;9.626;2023-07-31T09:29:35;2.50;;;2.30;;
12871;SDS011;6504;53.766;9.626;2023-07-31T09:32:03;3.20;;;2.90;;
12871;SDS011;6504;53.766;9.626;2023-07-31T09:34:36;2.90;;;2.70;;
12871;SDS011;6504;53.766;9.626;2023-07-31T09:37:05;2.67;;;2.47;;
12871;SDS011;6504;53.766;9.626;2023-07-31T09:39:35;2.77;;;2.57;;
12871;SDS011;6504;53.766;9.626;2023-07-31T09:42:13;2.70;;;2.50;;
12871;SDS011;6504;53.766;9.626;2023-07-31T09:44:52;2.60;;;2.40;;
12871;SDS011;6504;53.766;9.626;2023-07-31T09:47:23;2.50;;;2.30;;
12871;SDS011;6504;53.766;9.626;2023-07-31T09:49:52;2.73;;;2.53;;
12871;SDS011;6504;53.766;9.626;2023-07-31T09:52:20;2.20;;;2.00;;
12871;SDS011;6504;53.766;9.626;2023-07-31T09:54:48;2.70;;;2.07;;
12871;SDS011;6504;53.766;9.626;2023-07-31T09:57:16;7.93;;;2.90;;
12871;SDS011;6504;53.766;9.626;2023-07-31T09:59:45;3.77;;;2.50;;
12871;SDS011;6504;53.766;9.626;2023-07-31T10:02:21;2.40;;;2.30;;
12871;SDS011;6504;53.766;9.626;2023-07-31T10:04:50;2.37;;;2.20;;
12871;SDS011;6504;53.766;9.626;2023-07-31T10:07:20;2.87;;;2.27;;
12871;SDS011;6504;53.766;9.626;2023-07-31T10:09:52;2.37;;;2.17;;
12871;SDS011;6504;53.766;9.626;2023-07-31T10:12:21;2.40;;;2.20;;
12871;SDS011;6504;53.766;9.626;2023-07-31T10:14:52;2.43;;;2.17;;
12871;SDS011;6504;53.766;9.626;2023-07-31T10:17:24;2.10;;;1.90;;
12871;SDS011;6504;53.766;9.626;2023-07-31T10:19:53;2.10;;;1.90;;
12871;SDS011;6504;53.766;9.626;2023-07-31T10:22:21;2.37;;;1.90;;
12871;SDS011;6504;53.766;9.626;2023-07-31T10:24:50;1.57;;;1.43;;
12871;SDS011;6504;53.766;9.626;2023-07-31T10:27:19;1.93;;;1.50;;
12871;SDS011;6504;53.766;9.626;2023-07-31T10:29:48;1.70;;;1.50;;
12871;SDS011;6504;53.766;9.626;2023-07-31T10:32:17;1.90;;;1.57;;
12871;SDS011;6504;53.766;9.626;2023-07-31T10:34:48;1.87;;;1.37;;
12871;SDS011;6504;53.766;9.626;2023-07-31T10:37:23;1.57;;;1.47;;
12871;SDS011;6504;53.766;9.626;2023-07-31T10:39:56;1.47;;;1.37;;
12871;SDS011;6504;53.766;9.626;2023-07-31T10:42:29;1.33;;;1.23;;
12871;SDS011;6504;53.766;9.626;2023-07-31T10:44:59;1.27;;;1.17;;
12871;SDS011;6504;53.766;9.626;2023-07-31T10:47:28;1.40;;;1.30;;
12871;SDS011;6504;53.766;9.626;2023-07-31T10:50:13;1.40;;;1.30;;
12871;SDS011;6504;53.766;9.626;2023-07-31T10:52:46;2.07;;;1.20;;
12871;SDS011;6504;53.766;9.626;2023-07-31T10:55:16;1.97;;;1.40;;
12871;SDS011;6504;53.766;9.626;2023-07-31T10:57:52;1.20;;;1.10;;
12871;SDS011;6504;53.766;9.626;2023-07-31T11:00:22;2.20;;;1.23;;
12871;SDS011;6504;53.766;9.626;2023-07-31T11:02:58;1.20;;;1.10;;
12871;SDS011;6504;53.766;9.626;2023-07-31T11:05:43;1.10;;;1.00;;
12871;SDS011;6504;53.766;9.626;2023-07-31T11:08:13;1.00;;;0.90;;
12871;SDS011;6504;53.766;9.626;2023-07-31T11:10:43;1.30;;;0.90;;
12871;SDS011;6504;53.766;9.626;2023-07-31T11:13:11;0.90;;;0.90;;
12871;SDS011;6504;53.766;9.626;2023-07-31T11:15:40;1.20;;;1.10;;
12871;SDS011;6504;53.766;9.626;2023-07-31T11:18:08;2.43;;;1.20;;
12871;SDS011;6504;53.766;9.626;2023-07-31T11:20:37;1.13;;;1.00;;
12871;SDS011;6504;53.766;9.626;2023-07-31T11:23:08;1.40;;;1.00;;
12871;SDS011;6504;53.766;9.626;2023-07-31T11:25:37;1.17;;;1.07;;
12871;SDS011;6504;53.766;9.626;2023-07-31T11:28:08;1.20;;;1.00;;
12871;SDS011;6504;53.766;9.626;2023-07-31T11:30:37;1.73;;;1.10;;
12871;SDS011;6504;53.766;9.626;2023-07-31T11:33:07;1.33;;;1.00;;
12871;SDS011;6504;53.766;9.626;2023-07-31T11:35:44;1.20;;;1.10;;
12871;SDS011;6504;53.766;9.626;2023-07-31T11:38:21;0.90;;;0.90;;
12871;SDS011;6504;53.766;9.626;2023-07-31T11:40:51;1.13;;;1.00;;
12871;SDS011;6504;53.766;9.626;2023-07-31T11:43:19;1.20;;;1.10;;
12871;SDS011;6504;53.766;9.626;2023-07-31T11:45:49;1.00;;;0.90;;
12871;SDS011;6504;53.766;9.626;2023-07-31T11:48:19;1.10;;;1.00;;
12871;SDS011;6504;53.766;9.626;2023-07-31T11:50:49;1.37;;;0.93;;
12871;SDS011;6504;53.766;9.626;2023-07-31T11:53:19;1.10;;;1.00;;
12871;SDS011;6504;53.766;9.626;2023-07-31T11:55:53;1.13;;;0.90;;
12871;SDS011;6504;53.766;9.626;2023-07-31T11:58:22;1.10;;;0.87;;
12871;SDS011;6504;53.766;9.626;2023-07-31T12:00:51;1.10;;;1.00;;
12871;SDS011;6504;53.766;9.626;2023-07-31T12:03:20;0.77;;;0.77;;
12871;SDS011;6504;53.766;9.626;2023-07-31T12:05:48;1.37;;;0.90;;
12871;SDS011;6504;53.766;9.626;2023-07-31T12:08:16;1.47;;;1.00;;
12871;SDS011;6504;53.766;9.626;2023-07-31T12:10:49;0.90;;;0.90;;
12871;SDS011;6504;53.766;9.626;2023-07-31T12:13:20;1.17;;;1.03;;
12871;SDS011;6504;53.766;9.626;2023-07-31T12:15:49;0.70;;;0.70;;
12871;SDS011;6504;53.766;9.626;2023-07-31T12:18:23;1.00;;;0.90;;
12871;SDS011;6504;53.766;9.626;2023-07-31T12:20:54;1.30;;;0.90;;
12871;SDS011;6504;53.766;9.626;2023-07-31T12:23:24;1.10;;;1.00;;
12871;SDS011;6504;53.766;9.626;2023-07-31T12:26:02;1.87;;;1.10;;
12871;SDS011;6504;53.766;9.626;2023-07-31T12:28:34;1.80;;;0.97;;
12871;SDS011;6504;53.766;9.626;2023-07-31T12:31:04;1.30;;;1.10;;
12871;SDS011;6504;53.766;9.626;2023-07-31T12:33:33;1.20;;;1.10;;
12871;SDS011;6504;53.766;9.626;2023-07-31T12:36:02;1.33;;;1.10;;
12871;SDS011;6504;53.766;9.626;2023-07-31T12:38:31;1.27;;;1.10;;
12871;SDS011;6504;53.766;9.626;2023-07-31T12:41:00;1.73;;;0.97;;
12871;SDS011;6504;53.766;9.626;2023-07-31T12:43:29;1.43;;;1.10;;
12871;SDS011;6504;53.766;9.626;2023-07-31T12:45:57;1.27;;;1.00;;
12871;SDS011;6504;53.766;9.626;2023-07-31T12:48:26;1.10;;;0.97;;
12871;SDS011;6504;53.766;9.626;2023-07-31T12:50:54;0.93;;;0.83;;
12871;SDS011;6504;53.766;9.626;2023-07-31T12:53:22;1.03;;;0.90;;
12871;SDS011;6504;53.766;9.626;2023-07-31T12:55:50;1.10;;;1.00;;
12871;SDS011;6504;53.766;9.626;2023-07-31T12:58:18;1.20;;;1.00;;
12871;SDS011;6504;53.766;9.626;2023-07-31T13:00:48;1.00;;;0.90;;
12871;SDS011;6504;53.766;9.626;2023-07-31T13:03:16;1.77;;;0.90;;
12871;SDS011;6504;53.766;9.626;2023-07-31T13:05:44;1.00;;;0.90;;
12871;SDS011;6504;53.766;9.626;2023-07-31T13:08:12;1.40;;;1.10;;
12871;SDS011;6504;53.766;9.626;2023-07-31T13:10:42;1.73;;;1.10;;
12871;SDS011;6504;53.766;9.626;2023-07-31T13:13:10;1.07;;;0.97;;
12871;SDS011;6504;53.766;9.626;2023-07-31T13:15:38;1.43;;;1.10;;
12871;SDS011;6504;53.766;9.626;2023-07-31T13:18:08;1.30;;;0.90;;
12871;SDS011;6504;53.766;9.626;2023-07-31T13:20:36;0.80;;;0.80;;
12871;SDS011;6504;53.766;9.626;2023-07-31T13:23:04;1.30;;;1.17;;
12871;SDS011;6504;53.766;9.626;2023-07-31T13:25:32;1.97;;;1.20;;
12871;SDS011;6504;53.766;9.626;2023-07-31T13:28:00;1.43;;;1.10;;
12871;SDS011;6504;53.766;9.626;2023-07-31T13:30:29;1.17;;;1.00;;
12871;SDS011;6504;53.766;9.626;2023-07-31T13:32:57;1.30;;;1.20;;
12871;SDS011;6504;53.766;9.626;2023-07-31T13:35:26;1.27;;;1.17;;
12871;SDS011;6504;53.766;9.626;2023-07-31T13:37:54;1.27;;;1.03;;
12871;SDS011;6504;53.766;9.626;2023-07-31T13:40:22;1.13;;;1.00;;
12871;SDS011;6504;53.766;9.626;2023-07-31T13:42:50;1.10;;;1.00;;
12871;SDS011;6504;53.766;9.626;2023-07-31T13:45:19;1.83;;;1.10;;
12871;SDS011;6504;53.766;9.626;2023-07-31T13:47:48;2.77;;;1.10;;
12871;SDS011;6504;53.766;9.626;2023-07-31T13:50:17;2.03;;;1.20;;
12871;SDS011;6504;53.766;9.626;2023-07-31T13:52:48;1.73;;;1.17;;
12871;SDS011;6504;53.766;9.626;2023-07-31T13:55:16;1.60;;;1.10;;
12871;SDS011;6504;53.766;9.626;2023-07-31T13:57:44;2.00;;;1.20;;
12871;SDS011;6504;53.766;9.626;2023-07-31T14:00:13;1.87;;;1.00;;
12871;SDS011;6504;53.766;9.626;2023-07-31T14:02:41;2.83;;;1.43;;
12871;SDS011;6504;53.766;9.626;2023-07-31T14:05:09;1.77;;;1.00;;
12871;SDS011;6504;53.766;9.626;2023-07-31T14:07:37;1.53;;;1.10;;
12871;SDS011;6504;53.766;9.626;2023-07-31T14:10:07;1.00;;;0.90;;
12871;SDS011;6504;53.766;9.626;2023-07-31T14:12:36;1.10;;;0.80;;
12871;SDS011;6504;53.766;9.626;2023-07-31T14:15:09;1.10;;;1.00;;
12871;SDS011;6504;53.766;9.626;2023-07-31T14:17:37;1.17;;;0.90;;
12871;SDS011;6504;53.766;9.626;2023-07-31T14:20:06;2.10;;;0.93;;
12871;SDS011;6504;53.766;9.626;2023-07-31T14:22:36;1.30;;;1.03;;
12871;SDS011;6504;53.766;9.626;2023-07-31T14:25:05;2.07;;;1.10;;
12871;SDS011;6504;53.766;9.626;2023-07-31T14:27:36;1.03;;;0.83;;
12871;SDS011;6504;53.766;9.626;2023-07-31T14:30:05;1.10;;;1.00;;
12871;SDS011;6504;53.766;9.626;2023-07-31T14:32:36;1.97;;;0.90;;
12871;SDS011;6504;53.766;9.626;2023-07-31T14:35:04;1.10;;;1.00;;
12871;SDS011;6504;53.766;9.626;2023-07-31T14:37:38;1.13;;;0.90;;
12871;SDS011;6504;53.766;9.626;2023-07-31T14:40:09;1.00;;;0.90;;
12871;SDS011;6504;53.766;9.626;2023-07-31T14:42:39;0.97;;;0.87;;
12871;SDS011;6504;53.766;9.626;2023-07-31T14:45:07;1.13;;;1.00;;
12871;SDS011;6504;53.766;9.626;2023-07-31T14:47:36;0.77;;;0.77;;
12871;SDS011;6504;53.766;9.626;2023-07-31T14:50:05;0.90;;;0.80;;
12871;SDS011;6504;53.766;9.626;2023-07-31T14:52:34;1.27;;;0.80;;
12871;SDS011;6504;53.766;9.626;2023-07-31T14:55:02;1.23;;;0.80;;
12871;SDS011;6504;53.766;9.626;2023-07-31T14:57:32;1.40;;;0.90;;
12871;SDS011;6504;53.766;9.626;2023-07-31T15:00:00;2.23;;;0.90;;
12871;SDS011;6504;53.766;9.626;2023-07-31T15:02:30;4.57;;;4.13;;
12871;SDS011;6504;53.766;9.626;2023-07-31T15:04:58;1.30;;;1.20;;
12871;SDS011;6504;53.766;9.626;2023-07-31T15:07:26;1.27;;;1.07;;
12871;SDS011;6504;53.766;9.626;2023-07-31T15:09:55;1.80;;;1.10;;
12871;SDS011;6504;53.766;9.626;2023-07-31T15:12:23;1.67;;;1.27;;
12871;SDS011;6504;53.766;9.626;2023-07-31T15:14:52;1.67;;;1.23;;